createdAt,value
2018-01-14T00:01:10.828Z,102354.05
2018-01-14T00:03:39.195Z,102348.59
2018-01-14T00:06:07.966Z,102354.05
2018-01-14T00:08:36.341Z,102353.09
2018-01-14T00:11:05.594Z,102362.06
2018-01-14T00:13:33.975Z,102343.88
2018-01-14T00:16:02.350Z,102359.15
2018-01-14T00:18:30.708Z,102348.55
2018-01-14T00:20:59.077Z,102340.69
2018-01-14T00:23:27.911Z,102352.37
2018-01-14T00:25:56.314Z,102351.91
2018-01-14T00:28:24.670Z,102347.22
2018-01-14T00:30:53.157Z,102345.88
2018-01-14T00:33:21.520Z,102350.34
2018-01-14T00:35:49.933Z,102342.27
2018-01-14T00:38:18.391Z,102345.92
2018-01-14T00:40:46.776Z,102342.23
2018-01-14T00:43:15.145Z,102347.09
2018-01-14T00:45:43.512Z,102342.84
2018-01-14T00:48:11.872Z,102346.27
2018-01-14T00:50:40.308Z,102338.87
2018-01-14T00:53:08.688Z,102336.83
2018-01-14T00:55:37.161Z,102337.27
2018-01-14T00:58:05.529Z,102339.44
2018-01-14T01:00:33.914Z,102335.09
2018-01-14T01:03:02.298Z,102344.42
2018-01-14T01:05:30.669Z,102333.25
2018-01-14T01:07:59.042Z,102331.14
2018-01-14T01:10:27.403Z,102350.59
2018-01-14T01:12:55.760Z,102349.77
2018-01-14T01:15:24.127Z,102342.39
2018-01-14T01:17:52.898Z,102335.23
2018-01-14T01:20:21.253Z,102336.85
2018-01-14T01:22:50.043Z,102334.64
2018-01-14T01:25:18.819Z,102332.18
2018-01-14T01:27:47.177Z,102344.23
2018-01-14T01:30:15.589Z,102339.89
2018-01-14T01:32:44.382Z,102328.25
2018-01-14T01:35:12.767Z,102343.30
2018-01-14T01:37:41.215Z,102328.22
2018-01-14T01:40:09.573Z,102327.98
2018-01-14T01:42:38.010Z,102320.59
2018-01-14T01:45:06.505Z,102326.33
2018-01-14T01:47:35.356Z,102316.28
2018-01-14T01:50:03.716Z,102315.41
2018-01-14T01:52:32.096Z,102313.66
2018-01-14T01:55:00.452Z,102317.79
2018-01-14T01:57:28.828Z,102316.41
2018-01-14T01:59:57.216Z,102316.00
2018-01-14T02:02:25.588Z,102318.56
2018-01-14T02:04:54.108Z,102314.17
2018-01-14T02:07:22.479Z,102314.02
2018-01-14T02:09:50.848Z,102321.09
2018-01-14T02:12:20.227Z,102317.77
2018-01-14T02:14:48.633Z,102319.11
2018-01-14T02:17:16.987Z,102313.30
2018-01-14T02:19:45.343Z,102314.14
2018-01-14T02:22:14.131Z,102331.50
2018-01-14T02:24:42.577Z,102332.59
2018-01-14T02:27:10.945Z,102334.77
2018-01-14T02:29:39.323Z,102325.50
2018-01-14T02:32:07.695Z,102330.91
2018-01-14T02:34:36.061Z,102337.52
2018-01-14T02:37:05.277Z,102332.06
2018-01-14T02:39:33.646Z,102330.41
2018-01-14T02:42:02.047Z,102331.99
2018-01-14T02:44:30.428Z,102326.80
2018-01-14T02:46:58.781Z,102333.07
2018-01-14T02:49:27.179Z,102337.91
2018-01-14T02:51:55.560Z,102330.98
2018-01-14T02:54:23.956Z,102344.00
2018-01-14T02:56:52.324Z,102344.68
2018-01-14T02:59:20.711Z,102343.42
2018-01-14T03:01:49.080Z,102349.47
2018-01-14T03:04:17.450Z,102347.40
2018-01-14T03:06:45.905Z,102337.47
2018-01-14T03:09:14.332Z,102332.55
2018-01-14T03:11:42.806Z,102347.44
2018-01-14T03:14:11.384Z,102344.84
2018-01-14T03:16:39.749Z,102347.94
2018-01-14T03:19:08.140Z,102341.23
2018-01-14T03:21:36.621Z,102344.97
2018-01-14T03:24:04.976Z,102349.52
2018-01-14T03:26:33.380Z,102332.33
2018-01-14T03:29:01.840Z,102333.05
2018-01-14T03:31:30.234Z,102333.43
2018-01-14T03:33:58.599Z,102330.33
2018-01-14T03:36:26.978Z,102337.70
2018-01-14T03:38:55.332Z,102332.70
2018-01-14T03:41:23.758Z,102333.30
2018-01-14T03:43:52.136Z,102328.03
2018-01-14T03:46:20.492Z,102328.70
2018-01-14T03:48:48.885Z,102329.61
2018-01-14T03:51:17.276Z,102328.09
2018-01-14T03:53:45.634Z,102324.34
2018-01-14T03:56:14.046Z,102327.08
2018-01-14T03:58:42.678Z,102325.61
2018-01-14T04:01:11.086Z,102321.06
2018-01-14T04:03:39.467Z,102311.85
2018-01-14T04:06:07.847Z,102332.59
2018-01-14T04:11:10.696Z,102312.20
2018-01-14T04:13:39.450Z,102308.48
2018-01-14T04:16:07.810Z,102314.27
2018-01-14T04:18:37.103Z,102313.23
2018-01-14T04:21:05.507Z,102315.21
2018-01-14T04:23:33.860Z,102310.52
2018-01-14T04:26:02.268Z,102316.12
2018-01-14T04:28:30.642Z,102315.06
2018-01-14T04:30:59.020Z,102312.18
2018-01-14T04:33:28.183Z,102314.58
2018-01-14T04:35:56.575Z,102321.84
2018-01-14T04:38:24.951Z,102323.82
2018-01-14T04:40:53.332Z,102312.77
2018-01-14T04:43:21.716Z,102310.58
2018-01-14T04:45:50.076Z,102307.40
2018-01-14T04:48:18.454Z,102316.52
2018-01-14T04:50:46.856Z,102304.97
2018-01-14T04:53:15.338Z,102311.46
2018-01-14T04:55:43.699Z,102320.83
2018-01-14T04:58:12.144Z,102308.91
2018-01-14T05:00:40.924Z,102319.97
2018-01-14T05:03:09.674Z,102302.28
2018-01-14T05:05:38.047Z,102322.14
2018-01-14T05:08:06.408Z,102321.58
2018-01-14T05:10:34.804Z,102321.37
2018-01-14T05:13:03.180Z,102301.59
2018-01-14T05:15:31.541Z,102330.59
2018-01-14T05:17:59.935Z,102327.45
2018-01-14T05:20:28.582Z,102336.20
2018-01-14T05:22:57.000Z,102327.01
2018-01-14T05:25:25.385Z,102324.27
2018-01-14T05:27:53.760Z,102329.92
2018-01-14T05:30:22.138Z,102333.83
2018-01-14T05:32:50.583Z,102331.67
2018-01-14T05:35:18.943Z,102327.67
2018-01-14T05:37:47.719Z,102324.27
2018-01-14T05:40:16.165Z,102322.48
2018-01-14T05:42:45.467Z,102329.02
2018-01-14T05:45:13.846Z,102325.00
2018-01-14T05:47:42.221Z,102321.34
2018-01-14T05:50:10.604Z,102323.81
2018-01-14T05:52:38.979Z,102313.50
2018-01-14T05:55:07.343Z,102311.48
2018-01-14T05:57:35.751Z,102318.83
2018-01-14T06:00:04.116Z,102324.48
2018-01-14T06:02:32.503Z,102329.09
2018-01-14T06:05:00.862Z,102335.08
2018-01-14T06:07:29.239Z,102334.73
2018-01-14T06:09:57.642Z,102329.47
2018-01-14T06:12:26.020Z,102334.69
2018-01-14T06:14:55.036Z,102328.81
2018-01-14T06:17:23.391Z,102328.13
2018-01-14T06:19:51.757Z,102330.70
2018-01-14T06:22:20.123Z,102320.12
2018-01-14T06:24:48.481Z,102327.73
2018-01-14T06:27:16.847Z,102321.13
2018-01-14T06:29:45.227Z,102318.37
2018-01-14T06:32:13.666Z,102321.27
2018-01-14T06:34:42.060Z,102320.25
2018-01-14T06:37:10.521Z,102321.45
2018-01-14T06:39:38.884Z,102325.88
2018-01-14T06:42:07.259Z,102329.64
2018-01-14T06:44:35.631Z,102331.92
2018-01-14T06:47:04.003Z,102333.67
2018-01-14T06:49:32.417Z,102327.80
2018-01-14T06:52:00.780Z,102331.37
2018-01-14T06:54:29.253Z,102324.33
2018-01-14T06:56:57.636Z,102327.91
2018-01-14T06:59:25.991Z,102328.87
2018-01-14T07:01:54.508Z,102329.40
2018-01-14T07:04:23.316Z,102323.80
2018-01-14T07:06:51.680Z,102328.11
2018-01-14T07:09:20.155Z,102333.09
2018-01-14T07:11:48.535Z,102327.02
2018-01-14T07:14:16.912Z,102320.66
2018-01-14T07:16:45.291Z,102323.41
2018-01-14T07:19:13.850Z,102325.05
2018-01-14T07:21:42.579Z,102328.30
2018-01-14T07:24:10.939Z,102325.53
2018-01-14T07:26:39.412Z,102319.16
2018-01-14T07:29:07.778Z,102322.06
2018-01-14T07:31:36.158Z,102310.58
2018-01-14T07:34:04.796Z,102322.80
2018-01-14T07:36:33.369Z,102319.20
2018-01-14T07:39:01.728Z,102335.20
2018-01-14T07:41:30.203Z,102326.59
2018-01-14T07:43:58.599Z,102325.95
2018-01-14T07:46:26.976Z,102330.94
2018-01-14T07:48:55.324Z,102329.47
2018-01-14T07:51:23.751Z,102325.34
2018-01-14T07:53:52.115Z,102329.27
2018-01-14T07:56:20.495Z,102323.11
2018-01-14T07:58:48.941Z,102321.69
2018-01-14T08:01:17.443Z,102316.50
2018-01-14T08:03:45.800Z,102319.88
2018-01-14T08:06:14.308Z,102329.92
2018-01-14T08:08:42.685Z,102329.10
2018-01-14T08:11:11.070Z,102320.85
2018-01-14T08:13:39.467Z,102325.91
2018-01-14T08:16:07.831Z,102327.37
2018-01-14T08:18:36.205Z,102322.50
2018-01-14T08:21:04.568Z,102324.69
2018-01-14T08:23:32.963Z,102328.01
2018-01-14T08:26:01.441Z,102330.57
2018-01-14T08:28:29.821Z,102326.72
2018-01-14T08:30:58.404Z,102330.22
2018-01-14T08:33:26.772Z,102337.11
2018-01-14T08:35:55.151Z,102330.72
2018-01-14T08:38:23.506Z,102320.88
2018-01-14T08:40:51.860Z,102321.81
2018-01-14T08:43:20.647Z,102322.38
2018-01-14T08:45:49.387Z,102321.24
2018-01-14T08:48:17.756Z,102323.49
2018-01-14T08:50:46.148Z,102316.17
2018-01-14T08:53:14.530Z,102322.30
2018-01-14T08:55:42.920Z,102329.32
2018-01-14T08:58:11.289Z,102322.44
2018-01-14T09:00:39.860Z,102325.13
2018-01-14T09:03:08.211Z,102321.14
2018-01-14T09:05:36.591Z,102324.11
2018-01-14T09:08:05.012Z,102320.50
2018-01-14T09:10:33.395Z,102324.87
2018-01-14T09:13:01.967Z,102320.86
2018-01-14T09:15:30.335Z,102320.04
2018-01-14T09:17:58.736Z,102320.36
2018-01-14T09:20:27.124Z,102318.71
2018-01-14T09:22:55.484Z,102326.66
2018-01-14T09:25:23.861Z,102332.15
2018-01-14T09:27:52.246Z,102336.27
2018-01-14T09:30:38.440Z,102341.92
2018-01-14T09:33:06.925Z,102335.63
2018-01-14T09:35:35.312Z,102338.05
2018-01-14T09:38:03.675Z,102340.59
2018-01-14T09:40:32.078Z,102342.34
2018-01-14T09:43:00.426Z,102337.33
2018-01-14T09:45:28.820Z,102332.47
2018-01-14T09:47:57.193Z,102335.86
2018-01-14T09:50:25.674Z,102339.59
2018-01-14T09:52:54.036Z,102340.30
2018-01-14T09:55:22.510Z,102331.37
2018-01-14T09:57:50.886Z,102322.88
2018-01-14T10:00:19.367Z,102331.59
2018-01-14T10:02:47.958Z,102333.77
2018-01-14T10:05:16.359Z,102323.53
2018-01-14T10:07:44.722Z,102346.83
2018-01-14T10:10:13.096Z,102329.92
2018-01-14T10:12:41.459Z,102333.33
2018-01-14T10:15:09.847Z,102340.20
2018-01-14T10:17:38.217Z,102328.38
2018-01-14T10:20:06.571Z,102327.89
2018-01-14T10:22:35.327Z,102317.64
2018-01-14T10:25:03.688Z,102332.73
2018-01-14T10:27:32.064Z,102322.50
2018-01-14T10:30:00.868Z,102341.36
2018-01-14T10:32:29.296Z,102309.62
2018-01-14T10:34:57.898Z,102309.13
2018-01-14T10:37:26.406Z,102309.38
2018-01-14T10:39:56.622Z,102304.45
2018-01-14T10:42:25.622Z,102311.30
2018-01-14T10:44:53.990Z,102301.45
2018-01-14T10:47:22.384Z,102314.72
2018-01-14T10:49:50.740Z,102304.59
2018-01-14T10:52:19.128Z,102305.04
2018-01-14T10:54:47.493Z,102301.62
2018-01-14T10:57:15.924Z,102304.14
2018-01-14T10:59:44.676Z,102304.11
2018-01-14T11:02:13.048Z,102301.52
2018-01-14T11:04:42.179Z,102296.08
2018-01-14T11:07:11.009Z,102289.02
2018-01-14T11:09:39.371Z,102287.69
2018-01-14T11:12:07.799Z,102286.17
2018-01-14T11:14:36.249Z,102277.36
2018-01-14T11:17:04.656Z,102281.94
2018-01-14T11:19:33.008Z,102274.70
2018-01-14T11:22:01.379Z,102272.50
2018-01-14T11:24:29.737Z,102272.95
2018-01-14T11:26:58.514Z,102279.38
2018-01-14T11:29:38.632Z,102280.55
2018-01-14T11:32:07.003Z,102269.75
2018-01-14T11:34:35.355Z,102268.70
2018-01-14T11:37:03.714Z,102273.36
2018-01-14T11:39:32.124Z,102262.03
2018-01-14T11:42:00.509Z,102262.06
2018-01-14T11:44:28.915Z,102264.41
2018-01-14T11:46:57.270Z,102262.31
2018-01-14T11:49:25.687Z,102257.53
2018-01-14T11:51:54.552Z,102255.21
2018-01-14T11:54:22.911Z,102256.85
2018-01-14T11:56:51.312Z,102248.52
2018-01-14T11:59:19.684Z,102248.78
2018-01-14T12:01:48.048Z,102241.66
2018-01-14T12:04:16.464Z,102242.43
2018-01-14T12:06:44.901Z,102235.28
2018-01-14T12:09:13.336Z,102236.63
2018-01-14T12:11:41.958Z,102233.44
2018-01-14T12:14:10.375Z,102234.30
2018-01-14T12:16:38.741Z,102236.58
2018-01-14T12:19:07.127Z,102239.78
2018-01-14T12:21:35.505Z,102245.38
2018-01-14T12:24:03.865Z,102241.52
2018-01-14T12:26:32.376Z,102235.68
2018-01-14T12:29:00.741Z,102232.91
2018-01-14T12:31:29.123Z,102242.46
2018-01-14T12:37:18.975Z,102233.72
2018-01-14T12:39:47.815Z,102234.61
2018-01-14T12:42:16.182Z,102233.97
2018-01-14T12:44:44.565Z,102231.48
2018-01-14T12:47:12.939Z,102226.52
2018-01-14T12:49:41.328Z,102227.13
2018-01-14T12:52:09.718Z,102221.89
2018-01-14T12:54:38.099Z,102217.58
2018-01-14T12:57:06.479Z,102208.57
2018-01-14T12:59:35.110Z,102211.33
2018-01-14T13:02:04.831Z,102215.25
2018-01-14T13:04:33.202Z,102209.19
2018-01-14T13:07:02.478Z,102207.70
2018-01-14T13:11:35.261Z,102208.31
2018-01-14T13:14:03.634Z,102204.45
2018-01-14T13:16:32.110Z,102205.02
2018-01-14T13:19:00.472Z,102208.07
2018-01-14T13:21:28.861Z,102211.02
2018-01-14T13:23:57.236Z,102214.08
2018-01-14T13:26:25.737Z,102211.84
2018-01-14T13:28:54.088Z,102211.98
2018-01-14T13:31:22.475Z,102200.75
2018-01-14T13:33:50.831Z,102207.59
2018-01-14T13:36:19.279Z,102195.38
2018-01-14T13:38:48.120Z,102195.63
2018-01-14T13:41:16.492Z,102205.06
2018-01-14T13:43:44.858Z,102192.31
2018-01-14T13:46:13.261Z,102195.81
2018-01-14T13:48:41.612Z,102198.66
2018-01-14T13:51:10.053Z,102189.78
2018-01-14T13:53:38.912Z,102196.63
2018-01-14T13:56:07.297Z,102190.21
2018-01-14T13:58:35.649Z,102196.02
2018-01-14T14:01:04.015Z,102182.34
2018-01-14T14:03:32.422Z,102175.66
2018-01-14T14:06:00.831Z,102188.52
2018-01-14T14:08:29.227Z,102192.23
2018-01-14T14:10:58.107Z,102187.41
2018-01-14T14:13:26.469Z,102189.20
2018-01-14T14:15:54.820Z,102185.77
2018-01-14T14:18:23.199Z,102191.89
2018-01-14T14:20:51.557Z,102182.87
2018-01-14T14:23:19.943Z,102191.73
2018-01-14T14:25:48.352Z,102182.09
2018-01-14T14:28:16.703Z,102189.30
2018-01-14T14:30:45.076Z,102191.64
2018-01-14T14:33:13.480Z,102188.00
2018-01-14T14:35:41.875Z,102190.48
2018-01-14T14:38:10.236Z,102186.06
2018-01-14T14:40:38.597Z,102183.58
2018-01-14T14:43:06.947Z,102182.14
2018-01-14T14:45:35.758Z,102178.52
2018-01-14T14:50:39.101Z,102181.47
2018-01-14T14:53:07.510Z,102172.80
2018-01-14T14:55:35.869Z,102185.96
2018-01-14T14:58:04.220Z,102179.35
2018-01-14T15:00:32.576Z,102185.18
2018-01-14T15:03:00.984Z,102181.33
2018-01-14T15:05:29.372Z,102177.47
2018-01-14T15:07:57.729Z,102181.14
2018-01-14T15:10:26.084Z,102190.34
2018-01-14T15:12:54.444Z,102186.91
2018-01-14T15:15:23.227Z,102178.63
2018-01-14T15:17:51.984Z,102174.44
2018-01-14T15:20:20.354Z,102170.54
2018-01-14T15:22:48.757Z,102173.45
2018-01-14T15:25:17.116Z,102172.65
2018-01-14T15:27:45.508Z,102175.75
2018-01-14T15:30:13.949Z,102175.64
2018-01-14T15:32:42.296Z,102184.98
2018-01-14T15:35:11.168Z,102180.47
2018-01-14T15:37:39.625Z,102182.33
2018-01-14T15:40:07.980Z,102181.40
2018-01-14T15:42:36.348Z,102170.34
2018-01-14T15:45:04.770Z,102172.59
2018-01-14T15:47:33.139Z,102180.95
2018-01-14T15:50:01.500Z,102179.91
2018-01-14T15:52:29.855Z,102172.33
2018-01-14T15:54:58.276Z,102171.88
2018-01-14T15:57:26.652Z,102173.75
2018-01-14T15:59:55.036Z,102175.83
2018-01-14T16:02:23.407Z,102171.30
2018-01-14T16:04:51.801Z,102186.64
2018-01-14T16:07:20.273Z,102182.53
2018-01-14T16:09:48.680Z,102174.34
2018-01-14T16:12:17.925Z,102166.58
2018-01-14T16:14:46.279Z,102169.56
2018-01-14T16:17:14.700Z,102173.27
2018-01-14T16:19:43.052Z,102181.70
2018-01-14T16:22:11.464Z,102175.95
2018-01-14T16:24:39.840Z,102178.69
2018-01-14T16:27:08.199Z,102174.78
2018-01-14T16:29:36.580Z,102168.02
2018-01-14T16:32:04.947Z,102173.37
2018-01-14T16:34:33.303Z,102178.36
2018-01-14T16:37:02.068Z,102174.28
2018-01-14T16:39:30.534Z,102159.51
2018-01-14T16:41:58.933Z,102167.47
2018-01-14T16:44:27.389Z,102170.51
2018-01-14T16:46:55.751Z,102177.08
2018-01-14T16:49:24.124Z,102163.22
2018-01-14T16:51:52.516Z,102161.90
2018-01-14T16:54:20.919Z,102160.99
2018-01-14T16:56:49.284Z,102162.14
2018-01-14T16:59:17.642Z,102165.45
2018-01-14T17:01:46.000Z,102171.03
2018-01-14T17:04:14.353Z,102166.11
2018-01-14T17:06:43.129Z,102165.11
2018-01-14T17:09:11.543Z,102164.20
2018-01-14T17:11:39.872Z,102170.24
2018-01-14T17:14:08.417Z,102176.91
2018-01-14T17:16:36.779Z,102171.88
2018-01-14T17:19:05.316Z,102170.33
2018-01-14T17:21:33.677Z,102166.12
2018-01-14T17:24:02.034Z,102170.95
2018-01-14T17:26:30.388Z,102170.00
2018-01-14T17:28:59.337Z,102170.86
2018-01-14T17:31:27.773Z,102176.28
2018-01-14T17:33:56.152Z,102159.66
2018-01-14T17:36:24.513Z,102158.30
2018-01-14T17:38:53.360Z,102162.50
2018-01-14T17:41:21.725Z,102164.84
2018-01-14T17:43:50.088Z,102157.29
2018-01-14T17:46:18.452Z,102168.04
2018-01-14T17:48:46.800Z,102155.48
2018-01-14T17:51:15.178Z,102160.09
2018-01-14T17:53:43.657Z,102155.86
2018-01-14T17:56:12.125Z,102158.86
2018-01-14T17:58:40.490Z,102172.13
2018-01-14T18:01:08.849Z,102166.08
2018-01-14T18:03:37.211Z,102164.67
2018-01-14T18:06:05.629Z,102156.77
2018-01-14T18:08:33.998Z,102154.31
2018-01-14T18:11:02.362Z,102156.16
2018-01-14T18:13:30.729Z,102164.96
2018-01-14T18:15:59.098Z,102159.75
2018-01-14T18:18:27.459Z,102152.30
2018-01-14T18:20:56.325Z,102148.53
2018-01-14T18:23:24.701Z,102148.31
2018-01-14T18:25:53.076Z,102137.89
2018-01-14T18:28:21.478Z,102146.30
2018-01-14T18:30:50.245Z,102142.58
2018-01-14T18:33:18.608Z,102140.59
2018-01-14T18:35:47.014Z,102146.13
2018-01-14T18:38:15.517Z,102140.14
2018-01-14T18:40:44.044Z,102136.92
2018-01-14T18:43:12.392Z,102138.28
2018-01-14T18:46:13.472Z,102134.53
2018-01-14T18:48:41.921Z,102152.33
2018-01-14T18:51:10.332Z,102146.29
2018-01-14T18:53:38.712Z,102144.48
2018-01-14T18:56:07.080Z,102138.84
2018-01-14T18:59:43.355Z,102139.87
2018-01-14T19:02:11.759Z,102145.24
2018-01-14T19:04:40.120Z,102149.48
2018-01-14T19:07:09.151Z,102149.45
2018-01-14T19:09:37.496Z,102159.22
2018-01-14T19:12:05.868Z,102148.55
2018-01-14T19:14:34.228Z,102138.09
2018-01-14T19:17:02.612Z,102134.24
2018-01-14T19:19:30.975Z,102134.34
2018-01-14T19:21:59.333Z,102127.84
2018-01-14T19:24:28.087Z,102137.20
2018-01-14T19:26:56.566Z,102135.37
2018-01-14T19:29:24.930Z,102142.37
2018-01-14T19:31:53.409Z,102134.31
2018-01-14T19:34:21.776Z,102130.83
2018-01-14T19:36:50.137Z,102133.02
2018-01-14T19:39:18.510Z,102141.47
2018-01-14T19:41:46.893Z,102127.03
2018-01-14T19:44:15.315Z,102128.87
2018-01-14T19:46:43.884Z,102113.58
2018-01-14T19:49:12.251Z,102110.48
2018-01-14T19:51:40.627Z,102117.11
2018-01-14T19:54:09.128Z,102115.36
2018-01-14T19:56:37.590Z,102111.39
2018-01-14T19:59:05.950Z,102114.27
2018-01-14T20:01:34.746Z,102103.47
2018-01-14T20:04:03.097Z,102104.35
2018-01-14T20:06:31.855Z,102101.24
2018-01-14T20:09:00.216Z,102100.33
2018-01-14T20:11:28.605Z,102085.77
2018-01-14T20:13:56.990Z,102108.11
2018-01-14T20:16:25.374Z,102089.05
2018-01-14T20:18:53.755Z,102090.41
2018-01-14T20:21:22.232Z,102086.21
2018-01-14T20:23:50.605Z,102088.27
2018-01-14T20:26:19.058Z,102085.61
2018-01-14T20:28:47.428Z,102090.77
2018-01-14T20:31:15.804Z,102087.55
2018-01-14T20:33:44.337Z,102093.71
2018-01-14T20:36:12.712Z,102096.77
2018-01-14T20:38:41.141Z,102087.03
2018-01-14T20:41:09.480Z,102091.80
2018-01-14T20:43:37.955Z,102090.42
2018-01-14T20:46:06.324Z,102090.39
2018-01-14T20:48:34.712Z,102090.78
2018-01-14T20:51:03.076Z,102086.66
2018-01-14T20:53:31.469Z,102087.88
2018-01-14T20:55:59.842Z,102082.45
2018-01-14T20:58:28.197Z,102085.86
2018-01-14T21:00:56.576Z,102080.80
2018-01-14T21:03:24.934Z,102089.72
2018-01-14T21:05:53.357Z,102082.14
2018-01-14T21:08:21.766Z,102081.80
2018-01-14T21:10:50.620Z,102082.20
2018-01-14T21:13:19.053Z,102059.61
2018-01-14T21:15:47.419Z,102074.63
2018-01-14T21:18:16.180Z,102077.05
2018-01-14T21:20:44.540Z,102073.25
2018-01-14T21:23:12.914Z,102076.39
2018-01-14T21:25:41.267Z,102070.34
2018-01-14T21:28:09.625Z,102071.09
2018-01-14T21:30:38.391Z,102067.58
2018-01-14T21:33:06.858Z,102078.42
2018-01-14T21:35:35.224Z,102071.45
2018-01-14T21:38:03.589Z,102071.16
2018-01-14T21:40:31.944Z,102086.67
2018-01-14T21:43:00.305Z,102070.37
2018-01-14T21:45:29.075Z,102074.09
2018-01-14T21:47:57.462Z,102080.97
2018-01-14T21:50:25.824Z,102092.03
2018-01-14T21:52:54.200Z,102087.09
2018-01-14T21:55:22.650Z,102070.91
2018-01-14T21:57:50.999Z,102066.00
2018-01-14T22:00:19.379Z,102064.74
2018-01-14T22:02:47.747Z,102078.81
2018-01-14T22:05:16.594Z,102067.81
2018-01-14T22:07:44.980Z,102064.80
2018-01-14T22:10:13.342Z,102061.53
2018-01-14T22:12:41.730Z,102073.36
2018-01-14T22:15:10.119Z,102066.33
2018-01-14T22:17:38.479Z,102065.39
2018-01-14T22:20:06.838Z,102053.52
2018-01-14T22:22:35.195Z,102045.58
2018-01-14T22:25:03.571Z,102041.94
2018-01-14T22:27:32.002Z,102042.81
2018-01-14T22:30:00.361Z,102043.42
2018-01-14T22:32:28.782Z,102044.28
2018-01-14T22:34:57.141Z,102033.64
2018-01-14T22:37:25.507Z,102024.42
2018-01-14T22:39:53.903Z,102020.14
2018-01-14T22:42:22.272Z,102020.54
2018-01-14T22:44:50.639Z,102018.88
2018-01-14T22:47:19.037Z,102015.12
2018-01-14T22:49:47.401Z,102016.30
2018-01-14T22:52:15.758Z,102010.17
2018-01-14T22:54:44.128Z,102016.52
2018-01-14T22:57:12.517Z,102000.84
2018-01-14T22:59:40.881Z,102009.02
2018-01-14T23:02:09.260Z,102018.77
2018-01-14T23:04:37.640Z,102004.44
2018-01-14T23:07:06.059Z,101995.50
2018-01-14T23:09:34.424Z,101993.31
2018-01-14T23:12:02.805Z,101988.16
2018-01-14T23:14:31.189Z,101988.81
2018-01-14T23:16:59.572Z,101990.20
2018-01-14T23:19:27.967Z,101993.35
2018-01-14T23:21:56.353Z,101993.08
2018-01-14T23:24:24.719Z,101995.66
2018-01-14T23:26:53.086Z,102003.34
2018-01-14T23:29:21.469Z,102004.36
2018-01-14T23:31:49.833Z,102009.13
2018-01-14T23:34:18.204Z,101999.91
2018-01-14T23:36:46.597Z,101995.20
2018-01-14T23:39:14.948Z,101986.96
2018-01-14T23:41:43.320Z,101978.09
2018-01-14T23:44:11.683Z,101972.90
2018-01-14T23:46:40.116Z,101974.47
2018-01-14T23:49:08.466Z,101968.78
2018-01-14T23:51:36.835Z,101965.53
2018-01-14T23:54:05.259Z,101957.27
2018-01-14T23:56:33.636Z,101963.13
2018-01-14T23:59:02.016Z,101948.94
